Penn State University, Pennsylvania
Current Conditions -  °F | °C
As of 12:53 PM on Saturday 25 Oct 2014 (Local Time) from KUNV Reporting Station
Broken Clouds Broken Clouds  
Wind Chill: 64°   Ceiling: 4500
Heat Index: 64°   Visibility: 10mi
Dew Point: 48°   Wind: 16mph
Humidity: 56%   Direction: 250°WSW
Pressure: 29.82"   Gusts: 23mph
Location:  40.8092°N, 77.8868°W
Report Text: KUNV 251653Z 25014G20KT 10SM BKN045 18/09 A2982
Loading
Personal Weather Stations






























Interactive Weather Map
Tropical Storm Tracking
New forecast layout! Learn more

10-Day Weather Forecast

Advertisements
Track Severe Weather on mobile